Time;durP1;ratioP1;P1;durP2;ratioP2;P2;SDS_P1;SDS_P2;PMS_P1;PMS_P2;Temp;Humidity;BMP_temperature;BMP_pressure;BME280_temperature;BME280_humidity;BME280_pressure;Samples;Min_cycle;Max_cycle;Signal;HPM_P1;HPM_P2
2021/09/11 00:00:45;;;;;;;11.57;9.80;;;21.60;99.90;;;;;;5087480;28;20570;-81
2021/09/11 00:03:12;;;;;;;10.90;9.80;;;21.60;99.90;;;;;;5097125;28;20829;-81
2021/09/11 00:05:39;;;;;;;9.57;8.57;;;21.60;99.90;;;;;;5096530;28;20933;-81
2021/09/11 00:08:06;;;;;;;11.77;10.00;;;21.50;99.90;;;;;;5096165;28;20450;-81
2021/09/11 00:10:34;;;;;;;10.03;9.00;;;21.60;99.90;;;;;;5096421;28;20810;-81
2021/09/11 00:13:01;;;;;;;11.07;9.97;;;21.60;99.90;;;;;;5095376;28;20538;-81
2021/09/11 00:15:32;;;;;;;10.83;9.73;;;21.50;99.90;;;;;;5092775;28;20537;-81
2021/09/11 00:18:00;;;;;;;10.57;9.47;;;21.50;99.90;;;;;;5095449;28;20452;-81
2021/09/11 00:20:28;;;;;;;11.53;10.33;;;21.50;99.90;;;;;;5095388;28;20482;-81
2021/09/11 00:22:55;;;;;;;11.03;9.40;;;21.50;99.90;;;;;;5095814;28;20471;-81
2021/09/11 00:25:22;;;;;;;13.53;10.10;;;21.40;99.90;;;;;;5096165;28;20562;-81
2021/09/11 00:27:49;;;;;;;11.00;9.90;;;21.30;99.90;;;;;;5095866;28;20447;-81
2021/09/11 00:30:16;;;;;;;9.70;8.80;;;21.30;99.90;;;;;;5096245;28;20455;-80
2021/09/11 00:32:43;;;;;;;10.23;9.10;;;21.30;99.90;;;;;;5095381;28;20479;-81
2021/09/11 00:35:13;;;;;;;12.07;10.00;;;21.20;99.90;;;;;;5095708;28;20447;-81
2021/09/11 00:37:40;;;;;;;12.60;9.97;;;21.20;99.90;;;;;;5086469;28;20504;-81
2021/09/11 00:40:08;;;;;;;10.80;9.70;;;21.20;99.90;;;;;;5096192;28;20474;-80
2021/09/11 00:42:36;;;;;;;11.83;9.47;;;21.20;99.90;;;;;;5097245;28;20471;-81
2021/09/11 00:45:03;;;;;;;10.40;9.30;;;21.10;99.90;;;;;;5097061;28;20443;-81
2021/09/11 00:47:30;;;;;;;10.30;9.03;;;21.10;99.90;;;;;;5096466;28;20455;-81
2021/09/11 00:49:57;;;;;;;9.93;9.00;;;21.10;99.90;;;;;;5085922;28;20472;-79
2021/09/11 00:52:25;;;;;;;9.80;8.80;;;21.10;99.90;;;;;;5082217;28;20538;-80
2021/09/11 00:54:52;;;;;;;8.90;7.90;;;21.20;99.90;;;;;;5097957;28;20537;-81
2021/09/11 00:57:20;;;;;;;9.80;8.80;;;21.10;99.90;;;;;;5099632;28;20450;-81
2021/09/11 00:59:47;;;;;;;9.33;8.33;;;21.10;99.90;;;;;;5098760;28;20454;-81
2021/09/11 01:02:13;;;;;;;10.40;8.53;;;21.10;99.90;;;;;;5100008;28;20466;-81
2021/09/11 01:04:40;;;;;;;10.83;8.70;;;21.10;99.90;;;;;;5099605;28;20550;-81
2021/09/11 01:07:07;;;;;;;10.40;9.40;;;21.10;99.90;;;;;;5100714;28;20955;-81
2021/09/11 01:09:35;;;;;;;10.13;9.13;;;21.10;99.90;;;;;;5099514;28;20887;-81
2021/09/11 01:12:02;;;;;;;11.40;9.80;;;21.10;99.90;;;;;;5100079;28;20482;-81
2021/09/11 01:14:29;;;;;;;10.63;9.30;;;21.10;99.90;;;;;;5099490;28;20821;-79
2021/09/11 01:16:56;;;;;;;9.90;8.90;;;21.10;99.90;;;;;;5099104;28;20461;-82
2021/09/11 01:19:23;;;;;;;10.40;9.00;;;21.10;99.90;;;;;;5099682;28;20485;-80
2021/09/11 01:21:50;;;;;;;9.17;8.27;;;21.00;99.90;;;;;;5100568;28;20836;-81
2021/09/11 01:24:18;;;;;;;9.70;8.70;;;21.00;99.90;;;;;;5110709;28;20447;-78
2021/09/11 01:26:45;;;;;;;10.43;8.40;;;21.00;99.90;;;;;;5111385;28;20443;-78
2021/09/11 01:29:12;;;;;;;9.20;8.30;;;21.00;99.90;;;;;;5104879;28;20823;-80
2021/09/11 01:31:39;;;;;;;9.77;8.27;;;21.10;99.90;;;;;;5099550;28;20498;-79
2021/09/11 01:34:06;;;;;;;10.03;8.80;;;21.10;99.90;;;;;;5109677;28;21006;-81
2021/09/11 01:36:32;;;;;;;9.73;8.77;;;21.00;99.90;;;;;;5109917;28;20457;-81
2021/09/11 01:38:59;;;;;;;10.30;8.77;;;21.00;99.90;;;;;;5101972;28;20482;-79
2021/09/11 01:41:27;;;;;;;9.27;8.10;;;20.90;99.90;;;;;;5102261;28;20491;-81
2021/09/11 01:43:54;;;;;;;9.90;7.50;;;20.90;99.90;;;;;;5100050;28;20450;-80
2021/09/11 01:46:21;;;;;;;8.57;7.37;;;20.90;99.90;;;;;;5099226;28;20462;-81
2021/09/11 01:48:48;;;;;;;8.80;7.70;;;20.90;99.90;;;;;;5099782;28;20451;-81
2021/09/11 01:51:15;;;;;;;9.47;8.47;;;20.80;99.90;;;;;;5098731;28;20577;-80
2021/09/11 01:53:41;;;;;;;10.37;8.70;;;20.80;99.90;;;;;;5099357;28;20778;-81
2021/09/11 01:56:08;;;;;;;8.90;7.70;;;20.70;99.90;;;;;;5098778;28;20486;-81
2021/09/11 01:58:36;;;;;;;9.97;8.27;;;20.60;99.90;;;;;;5098435;28;20445;-81
2021/09/11 02:01:03;;;;;;;8.57;7.67;;;20.60;99.90;;;;;;5101543;28;20483;-79
2021/09/11 02:03:30;;;;;;;11.60;9.03;;;20.60;99.90;;;;;;5104409;28;20457;-79
2021/09/11 02:05:57;;;;;;;9.40;8.47;;;20.70;99.90;;;;;;5107433;28;21034;-82
2021/09/11 02:08:23;;;;;;;10.20;9.20;;;20.70;99.90;;;;;;5098854;28;20973;-82
2021/09/11 02:10:50;;;;;;;9.63;8.50;;;20.60;99.90;;;;;;5098752;28;20482;-82
2021/09/11 02:13:17;;;;;;;11.00;8.87;;;20.60;99.90;;;;;;5099001;28;20467;-82
2021/09/11 02:15:45;;;;;;;8.73;7.87;;;20.60;99.90;;;;;;5097892;28;20613;-82
2021/09/11 02:18:12;;;;;;;10.03;9.03;;;20.60;99.90;;;;;;5098387;28;20908;-81
2021/09/11 02:20:39;;;;;;;9.53;8.40;;;20.60;99.90;;;;;;5097927;28;20474;-81
2021/09/11 02:23:05;;;;;;;9.40;8.40;;;20.60;99.90;;;;;;5098693;28;20473;-81
2021/09/11 02:25:32;;;;;;;9.00;8.03;;;20.60;99.90;;;;;;5098598;28;20818;-81
2021/09/11 02:27:59;;;;;;;9.60;8.60;;;20.50;99.90;;;;;;5098074;28;20451;-81
2021/09/11 02:30:26;;;;;;;10.23;9.00;;;20.60;99.90;;;;;;5099390;28;20546;-82
2021/09/11 02:32:54;;;;;;;10.43;9.33;;;20.60;99.90;;;;;;5096578;28;20479;-84
2021/09/11 02:35:21;;;;;;;9.30;8.30;;;20.50;99.90;;;;;;5100050;28;20447;-84
2021/09/11 02:37:48;;;;;;;9.50;8.50;;;20.60;99.90;;;;;;5099263;28;20549;-84
2021/09/11 02:40:15;;;;;;;9.60;8.33;;;20.60;99.90;;;;;;5099052;28;20450;-84
2021/09/11 02:42:41;;;;;;;9.80;8.60;;;20.60;99.90;;;;;;5099680;28;20498;-83
2021/09/11 02:45:10;;;;;;;10.30;8.90;;;20.60;99.90;;;;;;5110869;28;20447;-78
2021/09/11 02:47:37;;;;;;;8.37;7.47;;;20.70;99.90;;;;;;5108156;28;20447;-80
2021/09/11 02:50:07;;;;;;;9.67;8.67;;;20.70;99.90;;;;;;5105815;28;20537;-82
2021/09/11 02:52:34;;;;;;;10.10;7.93;;;20.60;99.90;;;;;;5101306;28;20482;-82
2021/09/11 02:55:00;;;;;;;9.63;7.80;;;20.60;99.90;;;;;;5098949;28;20481;-82
2021/09/11 02:57:27;;;;;;;11.83;8.37;;;20.70;99.90;;;;;;5099909;28;20537;-82
2021/09/11 02:59:54;;;;;;;9.83;8.83;;;20.70;99.90;;;;;;5104121;28;20522;-80
2021/09/11 03:02:21;;;;;;;9.87;8.87;;;20.60;99.90;;;;;;5112687;28;20487;-82
2021/09/11 03:04:47;;;;;;;11.13;8.67;;;20.60;99.90;;;;;;5102753;28;20944;-82
2021/09/11 03:07:16;;;;;;;8.83;7.93;;;20.60;99.90;;;;;;5098234;28;20537;-82
2021/09/11 03:09:42;;;;;;;9.60;8.60;;;20.60;99.90;;;;;;5098455;28;20447;-81
2021/09/11 03:12:09;;;;;;;9.20;8.30;;;20.60;99.90;;;;;;5098598;28;20530;-82
2021/09/11 03:14:36;;;;;;;9.50;8.50;;;20.50;99.90;;;;;;5097810;28;20994;-82
2021/09/11 03:17:03;;;;;;;10.10;8.37;;;20.40;99.90;;;;;;5099581;28;20529;-81
2021/09/11 03:19:30;;;;;;;9.23;8.23;;;20.40;99.90;;;;;;5098431;28;20486;-83
2021/09/11 03:21:57;;;;;;;9.80;8.70;;;20.40;99.90;;;;;;5098143;28;20558;-82
2021/09/11 03:24:25;;;;;;;10.60;8.97;;;20.30;99.90;;;;;;5097974;28;20451;-82
2021/09/11 03:26:52;;;;;;;10.97;9.60;;;20.30;99.90;;;;;;5099291;28;20451;-81
2021/09/11 03:29:19;;;;;;;8.83;7.93;;;20.30;99.90;;;;;;5102870;28;20447;-82
2021/09/11 03:31:45;;;;;;;9.07;8.03;;;20.40;99.90;;;;;;5099322;28;20463;-82
2021/09/11 03:34:12;;;;;;;13.00;8.93;;;20.30;99.90;;;;;;5099345;28;20461;-82
2021/09/11 03:36:39;;;;;;;8.20;7.40;;;20.30;99.90;;;;;;5097977;28;20466;-82
2021/09/11 03:39:06;;;;;;;9.00;8.10;;;20.30;99.90;;;;;;5098982;28;20981;-82
2021/09/11 03:41:34;;;;;;;11.30;8.50;;;20.20;99.90;;;;;;5097958;28;20498;-82
2021/09/11 03:44:01;;;;;;;10.80;9.10;;;20.20;99.90;;;;;;5098191;28;20469;-82
2021/09/11 03:46:28;;;;;;;9.53;8.00;;;20.20;99.90;;;;;;5098404;28;20453;-82
2021/09/11 03:48:55;;;;;;;9.37;8.37;;;20.30;99.90;;;;;;5097459;28;20553;-82
2021/09/11 03:51:22;;;;;;;9.20;8.10;;;20.30;99.90;;;;;;5098956;28;20475;-82
2021/09/11 03:53:49;;;;;;;11.93;9.67;;;20.30;99.90;;;;;;5098075;28;20885;-82
2021/09/11 03:56:16;;;;;;;9.17;8.03;;;20.30;99.90;;;;;;5097527;28;20529;-80
2021/09/11 03:58:44;;;;;;;9.87;8.87;;;20.30;99.90;;;;;;5097115;28;20550;-82
2021/09/11 04:01:11;;;;;;;8.60;7.70;;;20.20;99.90;;;;;;5097254;28;20489;-81
2021/09/11 04:03:38;;;;;;;9.83;8.57;;;20.10;99.90;;;;;;5097573;28;20470;-81
2021/09/11 04:06:04;;;;;;;9.70;8.60;;;20.10;99.90;;;;;;5098360;28;20540;-82
2021/09/11 04:08:32;;;;;;;10.13;8.33;;;20.10;99.90;;;;;;5099414;28;20481;-82
2021/09/11 04:10:59;;;;;;;10.50;8.13;;;20.10;99.90;;;;;;5097051;28;20474;-82
2021/09/11 04:13:26;;;;;;;8.97;8.07;;;20.10;99.90;;;;;;5097510;28;20438;-82
2021/09/11 04:15:54;;;;;;;9.30;8.40;;;20.10;99.90;;;;;;5097769;28;20508;-82
2021/09/11 04:18:21;;;;;;;10.57;8.47;;;20.10;99.90;;;;;;5097503;28;20892;-82
2021/09/11 04:20:49;;;;;;;9.17;8.27;;;20.10;99.90;;;;;;5104290;28;20513;-79
2021/09/11 04:23:16;;;;;;;8.43;7.50;;;20.20;99.90;;;;;;5108462;28;20526;-81
2021/09/11 04:25:43;;;;;;;8.80;7.90;;;20.30;99.90;;;;;;5108251;28;20451;-81
2021/09/11 04:28:09;;;;;;;9.30;8.30;;;20.40;99.90;;;;;;5108492;28;20423;-80
2021/09/11 04:30:36;;;;;;;9.50;8.50;;;20.40;99.90;;;;;;5106876;28;20442;-81
2021/09/11 04:33:05;;;;;;;8.07;7.27;;;20.40;99.90;;;;;;5104217;28;20459;-81
2021/09/11 04:35:33;;;;;;;8.90;7.50;;;20.30;99.90;;;;;;5110883;28;20976;-80
2021/09/11 04:38:00;;;;;;;7.90;7.10;;;20.40;99.90;;;;;;5115104;28;20482;-80
2021/09/11 04:40:28;;;;;;;8.80;7.90;;;20.40;99.90;;;;;;5104456;28;20474;-82
2021/09/11 04:42:55;;;;;;;8.63;7.83;;;20.40;99.90;;;;;;5101254;28;20925;-82
2021/09/11 04:45:22;;;;;;;11.00;8.27;;;20.40;99.90;;;;;;5100930;28;20485;-82
2021/09/11 04:47:49;;;;;;;8.23;7.43;;;20.30;99.90;;;;;;5101055;28;20447;-81
2021/09/11 04:50:18;;;;;;;8.80;6.90;;;20.40;99.90;;;;;;5101596;28;20462;-82
2021/09/11 04:52:45;;;;;;;9.87;7.17;;;20.40;99.90;;;;;;5101040;28;20466;-81
2021/09/11 04:55:12;;;;;;;10.20;7.10;;;20.40;99.90;;;;;;5100504;28;20894;-82
2021/09/11 04:57:39;;;;;;;7.83;5.93;;;20.40;99.90;;;;;;5121489;22;20984;-77
2021/09/11 05:00:07;;;;;;;10.90;6.40;;;20.40;99.90;;;;;;5095315;28;20454;-77
2021/09/11 05:02:34;;;;;;;6.33;5.40;;;20.30;99.90;;;;;;5096470;28;20574;-78
2021/09/11 05:05:01;;;;;;;7.00;5.90;;;20.20;99.90;;;;;;5095903;28;20891;-78
2021/09/11 05:07:29;;;;;;;6.50;5.27;;;20.20;99.90;;;;;;5096764;28;20471;-77
2021/09/11 05:09:56;;;;;;;6.80;4.73;;;20.10;99.90;;;;;;5098950;28;20468;-77
2021/09/11 05:12:22;;;;;;;7.40;5.53;;;20.10;99.90;;;;;;5099389;28;20451;-78
2021/09/11 05:14:49;;;;;;;9.03;5.10;;;20.10;99.90;;;;;;5056319;28;20797;-78
2021/09/11 05:17:16;;;;;;;6.90;5.53;;;20.10;99.90;;;;;;5056312;28;20472;-79
2021/09/11 05:19:43;;;;;;;7.20;4.63;;;20.00;99.90;;;;;;5056807;28;20547;-78
2021/09/11 05:22:10;;;;;;;6.57;4.97;;;20.20;99.90;;;;;;5056722;28;20484;-78
2021/09/11 05:24:38;;;;;;;6.80;4.80;;;20.10;99.90;;;;;;5092427;28;20961;-78
2021/09/11 05:27:06;;;;;;;7.37;5.30;;;20.00;99.90;;;;;;5092386;28;20466;-78
2021/09/11 05:29:33;;;;;;;7.30;5.07;;;20.00;99.90;;;;;;5056727;28;21014;-79
2021/09/11 05:31:59;;;;;;;7.57;5.60;;;20.00;99.90;;;;;;5056665;28;20451;-80
2021/09/11 05:34:26;;;;;;;10.77;9.30;;;20.00;99.90;;;;;;5056156;28;20453;-78
2021/09/11 05:36:53;;;;;;;6.30;5.10;;;19.90;99.90;;;;;;5056633;28;20839;-79
2021/09/11 05:39:20;;;;;;;7.30;5.60;;;19.90;99.90;;;;;;5069086;28;20509;-78
2021/09/11 05:41:48;;;;;;;7.30;5.40;;;19.90;99.90;;;;;;5080987;28;20568;-77
2021/09/11 05:44:15;;;;;;;6.90;4.83;;;19.80;99.90;;;;;;5082197;28;20538;-78
2021/09/11 05:46:41;;;;;;;7.00;4.90;;;19.80;99.90;;;;;;5076060;28;20448;-79
2021/09/11 05:49:08;;;;;;;9.77;5.30;;;19.80;99.90;;;;;;5075572;28;20943;-79
2021/09/11 05:51:35;;;;;;;6.67;5.07;;;19.80;99.90;;;;;;5075163;28;20935;-78
2021/09/11 05:54:02;;;;;;;6.40;5.30;;;19.90;99.90;;;;;;5060027;28;20449;-79
2021/09/11 05:56:29;;;;;;;8.33;5.20;;;19.90;99.90;;;;;;5055394;28;20456;-79
2021/09/11 05:58:57;;;;;;;6.90;4.77;;;20.00;99.90;;;;;;5056480;28;20453;-79
2021/09/11 06:01:24;;;;;;;9.27;6.13;;;20.00;99.90;;;;;;5058412;28;20527;-78
2021/09/11 06:03:50;;;;;;;8.10;5.60;;;19.90;99.90;;;;;;5056209;28;20452;-79
2021/09/11 06:06:17;;;;;;;7.07;5.73;;;19.90;99.90;;;;;;5056161;28;20448;-79
2021/09/11 06:08:44;;;;;;;6.57;4.77;;;19.90;99.90;;;;;;5073219;28;20471;-79
2021/09/11 06:11:11;;;;;;;6.80;5.03;;;19.90;99.90;;;;;;5076773;28;20455;-80
2021/09/11 06:13:38;;;;;;;6.53;5.00;;;20.00;99.90;;;;;;5076593;28;20458;-79
2021/09/11 06:16:08;;;;;;;5.80;4.97;;;20.00;99.90;;;;;;5076603;28;20530;-79
2021/09/11 06:18:35;;;;;;;7.23;4.37;;;20.00;99.90;;;;;;5079035;28;20562;-78
2021/09/11 06:21:01;;;;;;;5.87;4.90;;;19.90;99.90;;;;;;5080339;28;20965;-80
2021/09/11 06:23:28;;;;;;;5.60;4.73;;;19.90;99.90;;;;;;5056298;28;20593;-78
2021/09/11 06:25:55;;;;;;;6.80;5.07;;;19.90;99.90;;;;;;5056171;28;20459;-78
2021/09/11 06:28:24;;;;;;;6.30;4.73;;;19.90;99.90;;;;;;5056415;28;20469;-79
2021/09/11 06:30:51;;;;;;;6.57;4.40;;;20.00;99.90;;;;;;5055713;28;20489;-79
2021/09/11 06:33:19;;;;;;;9.23;4.80;;;20.00;99.90;;;;;;5056183;28;20455;-79
2021/09/11 06:35:46;;;;;;;7.30;5.53;;;20.10;99.90;;;;;;5056910;28;20851;-81
2021/09/11 06:38:13;;;;;;;6.87;5.13;;;20.10;99.90;;;;;;5055626;28;20491;-78
2021/09/11 06:40:40;;;;;;;7.93;4.93;;;20.20;99.90;;;;;;5055828;28;20543;-79
2021/09/11 06:43:07;;;;;;;5.80;4.43;;;20.20;99.90;;;;;;5056519;28;20853;-78
2021/09/11 06:45:34;;;;;;;8.33;4.83;;;20.30;99.90;;;;;;5056193;28;20456;-79
2021/09/11 06:48:00;;;;;;;5.23;4.40;;;20.30;99.90;;;;;;5055567;28;20603;-79
2021/09/11 06:50:29;;;;;;;5.23;4.30;;;20.30;99.90;;;;;;5060732;28;20486;-79
2021/09/11 06:52:56;;;;;;;6.20;3.80;;;20.40;99.90;;;;;;5075180;28;20444;-79
2021/09/11 06:55:22;;;;;;;7.70;4.13;;;20.40;99.90;;;;;;5075502;28;20436;-79
2021/09/11 06:57:49;;;;;;;6.83;4.33;;;20.50;99.90;;;;;;5075227;28;20483;-79
2021/09/11 07:00:16;;;;;;;9.50;4.33;;;20.60;99.90;;;;;;5074991;28;20543;-79
2021/09/11 07:02:43;;;;;;;6.13;4.77;;;20.60;99.90;;;;;;5075423;28;20480;-79
2021/09/11 07:05:10;;;;;;;6.50;4.70;;;20.60;99.90;;;;;;5067581;28;20452;-79
2021/09/11 07:07:39;;;;;;;6.97;4.40;;;20.60;99.90;;;;;;5055209;28;20484;-79
2021/09/11 07:10:07;;;;;;;5.77;4.10;;;20.60;99.90;;;;;;5055016;28;20536;-78
2021/09/11 07:12:34;;;;;;;7.83;5.23;;;20.60;99.90;;;;;;5054931;28;20541;-79
2021/09/11 07:15:02;;;;;;;6.27;4.00;;;20.60;99.90;;;;;;5054678;28;20566;-79
2021/09/11 07:17:29;;;;;;;6.20;4.73;;;20.70;99.90;;;;;;5054907;28;20472;-78
2021/09/11 07:19:56;;;;;;;5.50;3.90;;;20.70;99.90;;;;;;5065182;28;20451;-79
2021/09/11 07:22:22;;;;;;;6.10;3.87;;;20.80;99.90;;;;;;5074716;28;20483;-78
2021/09/11 07:24:51;;;;;;;5.03;3.73;;;20.90;99.90;;;;;;5077450;28;20934;-78
2021/09/11 07:27:18;;;;;;;5.70;3.73;;;21.00;99.90;;;;;;5079114;28;20795;-77
2021/09/11 07:29:45;;;;;;;5.30;3.83;;;21.00;99.90;;;;;;5073625;28;20501;-78
2021/09/11 07:32:12;;;;;;;5.43;3.30;;;21.10;99.90;;;;;;5073590;28;20534;-78
2021/09/11 07:34:38;;;;;;;6.00;3.83;;;21.20;99.90;;;;;;5063137;28;20531;-78
2021/09/11 07:37:05;;;;;;;5.37;3.93;;;21.30;99.90;;;;;;5064611;28;20993;-82
2021/09/11 07:39:32;;;;;;;5.30;3.37;;;21.30;99.90;;;;;;5061428;28;20527;-85
2021/09/11 07:42:00;;;;;;;4.87;3.60;;;21.40;99.90;;;;;;5053821;28;20552;-78
2021/09/11 07:44:27;;;;;;;4.83;3.43;;;21.50;99.90;;;;;;5053821;28;20536;-78
2021/09/11 07:46:54;;;;;;;5.40;3.60;;;21.60;99.90;;;;;;5053530;28;20476;-78
2021/09/11 07:49:21;;;;;;;4.63;3.53;;;21.60;99.90;;;;;;5073262;28;20460;-78
2021/09/11 07:51:48;;;;;;;5.90;3.60;;;21.60;99.90;;;;;;5077598;28;20817;-79
2021/09/11 07:54:15;;;;;;;6.30;3.67;;;21.60;99.90;;;;;;5075125;28;20546;-80
2021/09/11 07:56:42;;;;;;;5.17;3.40;;;21.70;99.90;;;;;;5075178;28;20456;-82
2021/09/11 07:59:10;;;;;;;4.90;3.17;;;21.90;99.90;;;;;;5078131;28;20818;-80
2021/09/11 08:01:37;;;;;;;4.40;3.00;;;22.10;99.90;;;;;;5084425;28;20606;-81
2021/09/11 08:04:04;;;;;;;5.83;3.53;;;22.00;99.90;;;;;;5056799;28;20551;-80
2021/09/11 08:06:31;;;;;;;5.00;3.33;;;21.90;99.90;;;;;;5054447;28;20444;-80
2021/09/11 08:08:58;;;;;;;6.40;3.60;;;21.90;99.90;;;;;;5054628;28;20452;-80
2021/09/11 08:11:25;;;;;;;4.57;3.53;;;22.10;99.90;;;;;;5055270;28;20449;-81
2021/09/11 08:13:52;;;;;;;5.40;3.40;;;22.10;99.90;;;;;;5055743;28;20444;-83
2021/09/11 08:16:21;;;;;;;4.37;3.27;;;22.00;99.90;;;;;;5054716;28;20627;-79
2021/09/11 08:18:48;;;;;;;5.17;3.20;;;22.10;99.90;;;;;;5073964;28;20486;-80
2021/09/11 08:21:15;;;;;;;4.57;3.33;;;22.20;99.90;;;;;;5074957;28;20459;-81
2021/09/11 08:23:43;;;;;;;4.93;3.73;;;22.20;99.90;;;;;;5075978;28;20484;-81
2021/09/11 08:26:10;;;;;;;6.03;3.80;;;22.20;99.90;;;;;;5074824;28;20454;-81
2021/09/11 08:28:37;;;;;;;6.87;4.00;;;22.30;99.90;;;;;;5075007;28;20467;-81
2021/09/11 08:31:04;;;;;;;4.57;3.70;;;22.30;99.90;;;;;;5073786;28;20490;-81
2021/09/11 08:33:32;;;;;;;5.10;3.67;;;22.50;99.90;;;;;;5055714;28;20528;-81
2021/09/11 08:35:59;;;;;;;4.30;3.43;;;22.50;99.90;;;;;;5060039;28;20535;-81
2021/09/11 08:38:26;;;;;;;6.00;4.10;;;22.70;99.90;;;;;;5063469;28;20491;-81
2021/09/11 08:40:53;;;;;;;4.60;3.73;;;22.90;99.90;;;;;;5068407;28;20440;-79
2021/09/11 08:43:20;;;;;;;5.40;3.67;;;22.80;99.90;;;;;;5057896;28;20558;-80
2021/09/11 08:45:47;;;;;;;4.63;3.17;;;22.70;99.90;;;;;;5060303;28;20922;-80
2021/09/11 08:48:14;;;;;;;6.70;4.50;;;22.90;99.90;;;;;;5074821;28;20555;-82
2021/09/11 08:50:42;;;;;;;11.20;3.60;;;23.00;99.90;;;;;;5062922;28;20456;-82
2021/09/11 08:53:11;;;;;;;5.10;3.20;;;23.00;99.90;;;;;;5056286;28;20448;-82
2021/09/11 08:55:38;;;;;;;5.03;3.90;;;22.90;99.90;;;;;;5056712;28;20452;-82
2021/09/11 08:58:06;;;;;;;6.03;3.90;;;22.90;99.90;;;;;;5056227;28;20584;-82
2021/09/11 09:00:42;;;;;;;5.10;3.60;;;22.70;99.90;;;;;;5061994;28;20443;-82
2021/09/11 09:03:31;;;;;;;5.80;3.63;;;22.80;99.90;;;;;;5075046;28;20826;-82
2021/09/11 09:06:13;;;;;;;5.73;4.27;;;22.80;99.90;;;;;;5075920;28;20436;-83
2021/09/11 09:08:41;;;;;;;5.90;4.27;;;22.80;99.90;;;;;;5075364;28;20585;-81
2021/09/11 09:11:23;;;;;;;6.40;3.77;;;22.90;99.90;;;;;;5078094;28;20474;-79
2021/09/11 09:13:56;;;;;;;5.27;4.20;;;22.90;99.90;;;;;;5077616;28;20453;-81
2021/09/11 09:16:23;;;;;;;7.73;5.00;;;23.10;99.90;;;;;;5060618;28;20449;-80
2021/09/11 09:18:51;;;;;;;5.63;4.03;;;23.10;99.90;;;;;;5058894;28;20496;-79
2021/09/11 09:21:21;;;;;;;4.90;3.53;;;23.00;99.90;;;;;;5058369;28;20539;-80
2021/09/11 09:23:50;;;;;;;6.17;3.90;;;23.10;99.90;;;;;;5059658;28;20475;-80
2021/09/11 09:26:17;;;;;;;5.00;3.20;;;23.00;99.90;;;;;;5058729;28;20465;-78
2021/09/11 09:28:59;;;;;;;4.23;2.87;;;23.30;99.90;;;;;;5057213;28;20477;-78
2021/09/11 09:31:26;;;;;;;5.50;3.70;;;23.50;99.90;;;;;;5058036;28;20562;-78
2021/09/11 09:33:54;;;;;;;8.90;3.40;;;23.40;99.90;;;;;;5058069;28;20535;-79
2021/09/11 09:36:22;;;;;;;5.80;3.30;;;23.30;99.90;;;;;;5057208;28;20544;-79
2021/09/11 09:38:59;;;;;;;6.70;3.17;;;23.40;99.90;;;;;;5056711;28;20478;-77
2021/09/11 09:41:26;;;;;;;5.87;4.00;;;23.60;99.90;;;;;;5063031;28;20463;-79
2021/09/11 09:43:54;;;;;;;5.73;4.40;;;23.60;99.90;;;;;;5065101;28;20514;-79
2021/09/11 09:46:21;;;;;;;8.03;3.83;;;23.70;99.90;;;;;;5061125;28;20455;-79
2021/09/11 09:48:49;;;;;;;7.60;3.97;;;23.70;99.90;;;;;;5065984;28;20512;-80
2021/09/11 09:51:18;;;;;;;6.50;3.63;;;23.50;99.90;;;;;;5064760;28;20514;-80
2021/09/11 09:53:48;;;;;;;4.17;3.10;;;23.20;99.90;;;;;;5058804;28;20794;-80
2021/09/11 09:56:16;;;;;;;5.90;3.53;;;23.30;99.90;;;;;;5057259;28;20464;-80
2021/09/11 09:58:42;;;;;;;5.10;3.80;;;23.00;99.90;;;;;;5057797;28;20595;-81
2021/09/11 10:01:09;;;;;;;6.37;3.60;;;23.10;99.90;;;;;;5059163;28;20448;-82
2021/09/11 10:03:36;;;;;;;6.20;4.33;;;23.00;99.90;;;;;;5072252;28;20471;-81
2021/09/11 10:06:08;;;;;;;4.90;3.70;;;23.20;99.90;;;;;;5082090;28;20455;-79
2021/09/11 10:08:38;;;;;;;5.47;4.00;;;23.20;99.90;;;;;;5079812;28;20471;-79
2021/09/11 10:11:11;;;;;;;6.57;4.13;;;23.10;99.90;;;;;;5077290;28;20447;-81
2021/09/11 10:13:39;;;;;;;5.27;3.80;;;23.20;99.90;;;;;;5078535;28;20432;-79
2021/09/11 10:16:09;;;;;;;8.73;4.40;;;22.90;99.90;;;;;;5078332;28;20452;-80
2021/09/11 10:18:42;;;;;;;5.10;3.80;;;22.90;99.90;;;;;;5079124;28;20562;-80
2021/09/11 10:21:27;;;;;;;6.77;4.47;;;23.00;99.90;;;;;;5063591;28;20441;-81
2021/09/11 10:24:30;;;;;;;6.07;3.80;;;23.20;99.90;;;;;;5058189;28;20468;-82
2021/09/11 10:27:02;;;;;;;5.90;4.17;;;23.30;99.90;;;;;;5057478;28;20472;-81
2021/09/11 10:29:51;;;;;;;6.17;4.20;;;23.20;99.90;;;;;;5057604;28;20441;-81
2021/09/11 10:32:21;;;;;;;5.63;4.33;;;23.30;99.90;;;;;;5058131;28;20432;-81
2021/09/11 10:34:51;;;;;;;6.60;4.33;;;23.40;99.90;;;;;;5058149;28;20428;-82
2021/09/11 10:37:27;;;;;;;5.23;4.20;;;23.50;99.90;;;;;;5059191;28;20526;-79
2021/09/11 10:40:34;;;;;;;7.17;4.67;;;23.80;99.90;;;;;;5057590;28;20487;-82
2021/09/11 10:43:24;;;;;;;4.87;3.60;;;23.80;99.90;;;;;;5064212;28;20536;-79
2021/09/11 10:46:15;;;;;;;7.97;4.47;;;24.00;99.90;;;;;;5059998;28;20433;-81
2021/09/11 10:48:50;;;;;;;5.30;3.97;;;24.10;99.90;;;;;;5041116;28;20526;-79
2021/09/11 10:51:33;;;;;;;5.53;3.90;;;24.00;99.90;;;;;;5056063;28;20543;-81
2021/09/11 10:54:14;;;;;;;4.60;3.00;;;23.90;99.90;;;;;;5058515;28;20460;-81
2021/09/11 10:56:45;;;;;;;5.47;3.57;;;24.00;99.90;;;;;;5056849;28;20483;-80
2021/09/11 10:59:33;;;;;;;5.73;4.00;;;24.00;99.90;;;;;;5055960;28;20848;-79
2021/09/11 11:02:14;;;;;;;5.77;4.30;;;23.90;99.90;;;;;;5055905;28;20463;-80
2021/09/11 11:04:54;;;;;;;5.33;3.57;;;23.90;99.90;;;;;;5056087;28;20590;-81
2021/09/11 11:07:23;;;;;;;4.93;3.03;;;23.80;99.90;;;;;;5057162;28;20487;-84
2021/09/11 11:09:52;;;;;;;6.97;4.23;;;24.00;99.90;;;;;;5056923;28;20497;-81
2021/09/11 11:12:23;;;;;;;8.67;7.00;;;24.00;99.90;;;;;;5076083;28;20458;-80
2021/09/11 11:14:55;;;;;;;5.77;4.40;;;24.00;99.90;;;;;;5074787;28;20907;-82
2021/09/11 11:17:22;;;;;;;5.50;3.90;;;24.10;99.90;;;;;;5074336;28;20479;-77
2021/09/11 11:19:50;;;;;;;5.60;4.30;;;24.00;99.90;;;;;;5089521;28;20846;-80
2021/09/11 11:22:19;;;;;;;5.47;3.90;;;23.90;99.90;;;;;;5093941;28;20489;-79
2021/09/11 11:24:48;;;;;;;7.00;4.20;;;23.50;99.90;;;;;;5096058;28;20546;-79
2021/09/11 11:27:16;;;;;;;6.10;4.53;;;23.30;99.90;;;;;;5089876;28;21030;-78
2021/09/11 11:29:44;;;;;;;6.50;4.93;;;22.80;99.90;;;;;;5075651;28;20444;-79
2021/09/11 11:32:13;;;;;;;6.40;3.50;;;22.40;99.90;;;;;;5076829;28;20534;-81
2021/09/11 11:34:40;;;;;;;7.37;4.37;;;22.20;99.90;;;;;;5074789;28;20448;-79
2021/09/11 11:37:11;;;;;;;9.10;5.20;;;22.00;99.90;;;;;;5074290;28;20842;-79
2021/09/11 11:39:39;;;;;;;6.93;4.40;;;21.70;99.90;;;;;;5074968;28;20451;-79
2021/09/11 11:42:07;;;;;;;7.20;4.70;;;21.10;99.90;;;;;;5075604;28;20432;-79
2021/09/11 11:44:37;;;;;;;16.90;10.80;;;21.00;99.90;;;;;;5070518;28;20476;-79
2021/09/11 11:47:25;;;;;;;12.60;6.27;;;21.10;99.90;;;;;;5055549;28;20863;-80
2021/09/11 11:49:53;;;;;;;11.67;3.90;;;21.20;99.90;;;;;;5056702;28;20436;-81
2021/09/11 11:52:23;;;;;;;9.50;4.60;;;21.20;99.90;;;;;;5055517;28;20452;-82
2021/09/11 11:54:50;;;;;;;5.27;2.37;;;21.30;99.90;;;;;;5055462;28;20449;-82
2021/09/11 11:57:19;;;;;;;5.27;2.80;;;21.40;99.90;;;;;;5056378;28;20480;-79
2021/09/11 11:59:57;;;;;;;5.40;3.07;;;21.50;99.90;;;;;;5055799;28;20520;-80
2021/09/11 12:02:28;;;;;;;5.33;3.10;;;21.70;99.90;;;;;;5072118;28;20543;-80
2021/09/11 12:05:11;;;;;;;7.17;5.70;;;21.90;99.90;;;;;;5073919;28;20471;-78
2021/09/11 12:07:38;;;;;;;5.73;2.60;;;22.10;99.90;;;;;;5087120;22;20509;-78
2021/09/11 12:10:05;;;;;;;4.57;2.30;;;22.10;99.90;;;;;;5034519;28;20540;-78
2021/09/11 12:12:47;;;;;;;4.63;2.53;;;22.20;99.90;;;;;;5043419;28;20537;-78
2021/09/11 12:15:16;;;;;;;4.77;3.00;;;22.10;99.90;;;;;;5046689;28;20430;-80
2021/09/11 12:18:11;;;;;;;5.43;3.03;;;22.40;99.90;;;;;;5028981;28;20550;-79
2021/09/11 12:20:43;;;;;;;4.20;3.00;;;22.50;99.90;;;;;;4985827;28;20562;-80
2021/09/11 12:23:12;;;;;;;5.27;2.80;;;22.50;99.90;;;;;;4994039;28;20467;-78
2021/09/11 12:25:56;;;;;;;5.73;3.37;;;22.60;99.90;;;;;;4994215;28;20440;-80
2021/09/11 12:28:41;;;;;;;5.57;3.67;;;22.70;99.90;;;;;;4995160;28;20535;-79
2021/09/11 12:31:13;;;;;;;4.67;2.90;;;22.70;99.90;;;;;;5002963;28;20439;-78
2021/09/11 12:33:50;;;;;;;5.10;3.13;;;22.80;99.90;;;;;;5001462;28;20432;-78
2021/09/11 12:36:27;;;;;;;5.00;3.60;;;23.00;99.90;;;;;;5009953;28;20521;-78
2021/09/11 12:38:55;;;;;;;4.30;2.90;;;23.10;99.90;;;;;;5014553;28;20476;-79
2021/09/11 12:41:23;;;;;;;4.60;3.10;;;23.00;99.90;;;;;;5012863;28;20518;-80
2021/09/11 12:43:50;;;;;;;4.80;2.87;;;22.90;99.90;;;;;;5014762;28;20879;-82
2021/09/11 12:46:28;;;;;;;5.77;3.23;;;23.10;99.90;;;;;;5015792;28;20465;-82
2021/09/11 12:48:57;;;;;;;5.50;3.37;;;23.20;99.90;;;;;;5014718;28;20466;-82
2021/09/11 12:51:23;;;;;;;6.13;3.97;;;23.40;99.90;;;;;;5016470;28;20462;-81
2021/09/11 12:53:51;;;;;;;4.87;3.40;;;23.50;99.90;;;;;;5018044;28;20461;-80